Impacts METAR Board
IDs:

KPSC - Pasco/Tri Cities Arp, WA, US

Updated at: 1300 UTC 20 Oct 2021
Potential Impact None Slight Moderate High
Time 20/01Z 20/02Z 20/03Z 20/04Z 20/05Z 20/06Z 20/07Z 20/08Z 20/09Z 20/10Z 20/11Z 20/12Z 20/13Z
Temp56 52 51 51 49 49 47 43 42 42 44 57 53
Dewpt46 45 44 42 42 41 41 40 40 40 40 45 47
Altim29.81 29.80 29.78 29.78 29.77 29.76 29.75 29.74 29.73 29.73 29.75 29.77 29.77
VIS10 10 10 10 10 10 10 8 9 10 10 10 10
CIG-- -- -- -- -- -- -- -- -- -- -- 95 100
CoverCLRCLRCLRCLRCLRCLRCLRCLRCLRCLRCLROVCOVC
FltCatVFRVFRVFRVFRVFRVFRVFRVFRVFRVFRVFRVFRVFR
WX--------------------------
WDir3303203202902700330000021020
WSpd6 6 4 3 3 0 3 0 0 0 0 6 5
WGst-- -- -- -- -- -- -- -- -- -- -- -- --
Raw hourly METARs
KPSC 200053Z 33006KT 10SM CLR 13/08 A2981 RMK AO2 SLP094 T01330078
KPSC 200153Z 32006KT 10SM CLR 11/07 A2980 RMK AO2 SLP091 T01110072
KPSC 200253Z 32004KT 10SM CLR 11/07 A2978 RMK AO2 SLP086 T01060067 56013
KPSC 200353Z 29003KT 10SM CLR 11/06 A2978 RMK AO2 SLP084 T01060056
KPSC 200453Z 27003KT 10SM CLR 09/06 A2977 RMK AO2 SLP081 T00940056
KPSC 200553Z AUTO 00000KT 10SM CLR 09/05 A2976 RMK AO2 SLP079 T00940050 10172 20094 58006
KPSC 200653Z AUTO 33003KT 10SM CLR 08/05 A2975 RMK AO2 SLP076 T00830050
KPSC 200753Z AUTO 00000KT 8SM CLR 06/04 A2974 RMK AO2 SLP072 T00610044 401890028
KPSC 200853Z AUTO 00000KT 9SM CLR 06/04 A2973 RMK AO2 SLP069 T00560044 57010
KPSC 200953Z AUTO 00000KT 10SM CLR 06/04 A2973 RMK AO2 SLP067 T00560044
KPSC 201053Z AUTO 00000KT 10SM CLR 07/04 A2975 RMK AO2 SLP075 T00670044
KPSC 201153Z AUTO 21006KT 10SM FEW060 BKN095 OVC110 14/07 A2977 RMK AO2 RAB38E53 SLP081 P0000 60000 T01390072 10144 20044 53014
KPSC 201253Z AUTO 02005KT 10SM OVC100 12/08 A2977 RMK AO2 RAB13E24 SLP079 P0000 T01170083



Page loaded:  13:37 UTC  |   06:37 AM Pacific  |   07:37 AM Mountain  |   08:37 AM Central  |   09:37 AM Eastern

 

ADVISORIES

FORECASTS

FORECASTS

OBSERVATIONS

USER TOOLS

ABOUT US